FNLU/LAD METAR and TAF weather

Enter ICAO airport designator
Station Type Date Time Source
FNLU METAR 2019/04/25 22:00 UTC NOAA

FNLU 252200Z 17007KT 8000 FEW020 26/23 Q1012 NOSIG


Station Type Date Time Source
FNLU Decoded METAR 2019/04/25 22:00 UTC NOAA

Luanda, Angola (FNLU) 08-51S 013-14E 70M
Apr 25, 2019 - 06:00 PM EDT / 2019.04.25 2200 UTC
Wind: from the S (170 degrees) at 8 MPH (7 KT):0
Visibility: 4 mile(s):0
Sky conditions: mostly clear
Temperature: 78 F (26 C)
Dew Point: 73 F (23 C)
Relative Humidity: 83%
Pressure (altimeter): 29.88 in. Hg (1012 hPa)
ob: FNLU 252200Z 17007KT 8000 FEW020 26/23 Q1012 NOSIG
cycle: 22

Station Type Date Time Source
FNLU TAF 2019/04/25 18:47 UTC NOAA

TAF FNLU 251645Z 2518/2624 23008KT 9999 FEW015 BKN040
BECMG 2604/2608 VRB03KT 9000 SCT015 BKN022 PROB30
TEMPO 2614/2618 28010KT FEW020 SCT030

Example: see airport list